sensor_id;sensor_type;location;lat;lon;timestamp;temperature;humidity
3919;DHT22;1974;48.670;8.994;2023-02-22T00:00:25;6.40;99.90
3919;DHT22;1974;48.670;8.994;2023-02-22T00:03:01;6.30;99.90
3919;DHT22;1974;48.670;8.994;2023-02-22T00:05:29;6.30;99.90
3919;DHT22;1974;48.670;8.994;2023-02-22T00:07:56;6.30;99.90
3919;DHT22;1974;48.670;8.994;2023-02-22T00:10:25;6.30;99.90
3919;DHT22;1974;48.670;8.994;2023-02-22T00:12:54;6.30;99.90
3919;DHT22;1974;48.670;8.994;2023-02-22T00:15:22;6.40;99.90
3919;DHT22;1974;48.670;8.994;2023-02-22T00:17:51;6.30;99.90
3919;DHT22;1974;48.670;8.994;2023-02-22T00:20:18;6.30;99.90
3919;DHT22;1974;48.670;8.994;2023-02-22T00:22:49;6.30;99.90
3919;DHT22;1974;48.670;8.994;2023-02-22T00:25:19;6.30;99.90
3919;DHT22;1974;48.670;8.994;2023-02-22T00:27:47;6.40;99.90
3919;DHT22;1974;48.670;8.994;2023-02-22T00:30:18;6.40;99.90
3919;DHT22;1974;48.670;8.994;2023-02-22T00:32:45;6.40;99.90
3919;DHT22;1974;48.670;8.994;2023-02-22T00:35:13;6.40;99.90
3919;DHT22;1974;48.670;8.994;2023-02-22T00:37:40;6.40;99.90
3919;DHT22;1974;48.670;8.994;2023-02-22T00:40:09;6.40;99.90
3919;DHT22;1974;48.670;8.994;2023-02-22T00:42:37;6.30;99.90
3919;DHT22;1974;48.670;8.994;2023-02-22T00:45:04;6.30;99.90
3919;DHT22;1974;48.670;8.994;2023-02-22T00:47:31;6.30;99.90
3919;DHT22;1974;48.670;8.994;2023-02-22T00:49:58;6.30;99.90
3919;DHT22;1974;48.670;8.994;2023-02-22T00:52:25;6.20;99.90
3919;DHT22;1974;48.670;8.994;2023-02-22T00:54:52;6.20;99.90
3919;DHT22;1974;48.670;8.994;2023-02-22T00:57:21;6.20;99.90
3919;DHT22;1974;48.670;8.994;2023-02-22T00:59:47;6.10;99.90
3919;DHT22;1974;48.670;8.994;2023-02-22T01:02:15;6.10;99.90
3919;DHT22;1974;48.670;8.994;2023-02-22T01:04:42;6.10;99.90
3919;DHT22;1974;48.670;8.994;2023-02-22T01:07:09;6.00;99.90
3919;DHT22;1974;48.670;8.994;2023-02-22T01:09:35;6.00;99.90
3919;DHT22;1974;48.670;8.994;2023-02-22T01:12:04;6.00;99.90
3919;DHT22;1974;48.670;8.994;2023-02-22T01:14:33;6.00;99.90
3919;DHT22;1974;48.670;8.994;2023-02-22T01:17:00;6.00;99.90
3919;DHT22;1974;48.670;8.994;2023-02-22T01:19:27;6.00;99.90
3919;DHT22;1974;48.670;8.994;2023-02-22T01:21:53;6.00;99.90
3919;DHT22;1974;48.670;8.994;2023-02-22T01:24:20;6.00;99.90
3919;DHT22;1974;48.670;8.994;2023-02-22T01:26:49;6.00;99.90
3919;DHT22;1974;48.670;8.994;2023-02-22T01:29:17;6.00;99.90
3919;DHT22;1974;48.670;8.994;2023-02-22T01:31:51;6.00;99.90
3919;DHT22;1974;48.670;8.994;2023-02-22T01:34:20;6.00;99.90
3919;DHT22;1974;48.670;8.994;2023-02-22T01:36:47;6.00;99.90
3919;DHT22;1974;48.670;8.994;2023-02-22T01:39:14;6.00;99.90
3919;DHT22;1974;48.670;8.994;2023-02-22T01:41:42;6.00;99.90
3919;DHT22;1974;48.670;8.994;2023-02-22T01:44:20;5.90;99.90
3919;DHT22;1974;48.670;8.994;2023-02-22T01:46:52;5.90;99.90
3919;DHT22;1974;48.670;8.994;2023-02-22T01:49:19;5.90;99.90
3919;DHT22;1974;48.670;8.994;2023-02-22T01:51:48;5.90;99.90
3919;DHT22;1974;48.670;8.994;2023-02-22T01:54:20;5.90;99.90
3919;DHT22;1974;48.670;8.994;2023-02-22T01:56:53;5.90;99.90
3919;DHT22;1974;48.670;8.994;2023-02-22T01:59:21;5.90;99.90
3919;DHT22;1974;48.670;8.994;2023-02-22T02:01:49;5.90;99.90
3919;DHT22;1974;48.670;8.994;2023-02-22T02:04:20;5.80;99.90
3919;DHT22;1974;48.670;8.994;2023-02-22T02:06:50;5.80;99.90
3919;DHT22;1974;48.670;8.994;2023-02-22T02:09:20;5.80;99.90
3919;DHT22;1974;48.670;8.994;2023-02-22T02:11:52;5.80;99.90
3919;DHT22;1974;48.670;8.994;2023-02-22T02:14:19;5.80;99.90
3919;DHT22;1974;48.670;8.994;2023-02-22T02:16:49;5.80;99.90
3919;DHT22;1974;48.670;8.994;2023-02-22T02:19:23;5.80;99.90
3919;DHT22;1974;48.670;8.994;2023-02-22T02:31:18;5.70;99.90
3919;DHT22;1974;48.670;8.994;2023-02-22T02:33:50;5.80;99.90
3919;DHT22;1974;48.670;8.994;2023-02-22T02:36:28;5.80;99.90
3919;DHT22;1974;48.670;8.994;2023-02-22T02:39:00;5.90;99.90
3919;DHT22;1974;48.670;8.994;2023-02-22T02:41:33;5.90;99.90
3919;DHT22;1974;48.670;8.994;2023-02-22T02:44:04;5.90;99.90
3919;DHT22;1974;48.670;8.994;2023-02-22T02:46:37;6.00;99.90
3919;DHT22;1974;48.670;8.994;2023-02-22T02:49:10;6.10;99.90
3919;DHT22;1974;48.670;8.994;2023-02-22T02:51:42;6.10;99.90
3919;DHT22;1974;48.670;8.994;2023-02-22T02:54:12;6.10;99.90
3919;DHT22;1974;48.670;8.994;2023-02-22T02:56:40;6.10;99.90
3919;DHT22;1974;48.670;8.994;2023-02-22T02:59:23;6.00;99.90
3919;DHT22;1974;48.670;8.994;2023-02-22T03:02:00;5.90;99.90
3919;DHT22;1974;48.670;8.994;2023-02-22T03:04:40;5.90;99.90
3919;DHT22;1974;48.670;8.994;2023-02-22T03:07:27;5.80;99.90
3919;DHT22;1974;48.670;8.994;2023-02-22T03:10:07;5.80;99.90
3919;DHT22;1974;48.670;8.994;2023-02-22T03:12:44;5.70;99.90
3919;DHT22;1974;48.670;8.994;2023-02-22T03:15:21;5.70;99.90
3919;DHT22;1974;48.670;8.994;2023-02-22T03:17:55;5.70;99.90
3919;DHT22;1974;48.670;8.994;2023-02-22T03:20:30;5.70;99.90
3919;DHT22;1974;48.670;8.994;2023-02-22T03:23:03;5.60;99.90
3919;DHT22;1974;48.670;8.994;2023-02-22T03:25:35;5.60;99.90
3919;DHT22;1974;48.670;8.994;2023-02-22T03:28:07;5.50;99.90
3919;DHT22;1974;48.670;8.994;2023-02-22T03:30:37;5.50;99.90
3919;DHT22;1974;48.670;8.994;2023-02-22T03:33:09;5.40;99.90
3919;DHT22;1974;48.670;8.994;2023-02-22T03:35:42;5.40;99.90
3919;DHT22;1974;48.670;8.994;2023-02-22T03:38:14;5.40;99.90
3919;DHT22;1974;48.670;8.994;2023-02-22T03:40:43;5.30;99.90
3919;DHT22;1974;48.670;8.994;2023-02-22T03:43:14;5.30;99.90
3919;DHT22;1974;48.670;8.994;2023-02-22T03:45:43;5.30;99.90
3919;DHT22;1974;48.670;8.994;2023-02-22T03:48:17;5.30;99.90
3919;DHT22;1974;48.670;8.994;2023-02-22T03:50:47;5.20;99.90
3919;DHT22;1974;48.670;8.994;2023-02-22T03:53:16;5.20;99.90
3919;DHT22;1974;48.670;8.994;2023-02-22T03:55:44;5.10;99.90
3919;DHT22;1974;48.670;8.994;2023-02-22T03:58:13;5.10;99.90
3919;DHT22;1974;48.670;8.994;2023-02-22T04:00:40;5.10;99.90
3919;DHT22;1974;48.670;8.994;2023-02-22T04:03:09;5.10;99.90
3919;DHT22;1974;48.670;8.994;2023-02-22T04:05:36;5.00;99.90
3919;DHT22;1974;48.670;8.994;2023-02-22T04:08:05;5.00;99.90
3919;DHT22;1974;48.670;8.994;2023-02-22T04:10:32;4.90;99.90
3919;DHT22;1974;48.670;8.994;2023-02-22T04:12:58;4.90;99.90
3919;DHT22;1974;48.670;8.994;2023-02-22T04:15:25;4.90;99.90
3919;DHT22;1974;48.670;8.994;2023-02-22T04:17:52;4.90;99.90
3919;DHT22;1974;48.670;8.994;2023-02-22T04:20:20;4.90;99.90
3919;DHT22;1974;48.670;8.994;2023-02-22T04:22:50;4.80;99.90
3919;DHT22;1974;48.670;8.994;2023-02-22T04:25:18;4.80;99.90
3919;DHT22;1974;48.670;8.994;2023-02-22T04:27:45;4.80;99.90
3919;DHT22;1974;48.670;8.994;2023-02-22T04:30:12;4.80;99.90
3919;DHT22;1974;48.670;8.994;2023-02-22T04:32:39;4.80;99.90
3919;DHT22;1974;48.670;8.994;2023-02-22T04:35:06;4.80;99.90
3919;DHT22;1974;48.670;8.994;2023-02-22T04:37:33;4.80;99.90
3919;DHT22;1974;48.670;8.994;2023-02-22T04:40:00;4.80;99.90
3919;DHT22;1974;48.670;8.994;2023-02-22T04:42:33;4.80;99.90
3919;DHT22;1974;48.670;8.994;2023-02-22T04:45:00;4.80;99.90
3919;DHT22;1974;48.670;8.994;2023-02-22T04:47:27;4.80;99.90
3919;DHT22;1974;48.670;8.994;2023-02-22T04:49:54;4.70;99.90
3919;DHT22;1974;48.670;8.994;2023-02-22T04:52:21;4.70;99.90
3919;DHT22;1974;48.670;8.994;2023-02-22T04:54:47;4.70;99.90
3919;DHT22;1974;48.670;8.994;2023-02-22T04:57:15;4.70;99.90
3919;DHT22;1974;48.670;8.994;2023-02-22T04:59:43;4.70;99.90
3919;DHT22;1974;48.670;8.994;2023-02-22T05:02:10;4.80;99.90
3919;DHT22;1974;48.670;8.994;2023-02-22T05:04:37;4.90;99.90
3919;DHT22;1974;48.670;8.994;2023-02-22T05:07:04;5.00;99.90
3919;DHT22;1974;48.670;8.994;2023-02-22T05:09:30;5.10;99.90
3919;DHT22;1974;48.670;8.994;2023-02-22T05:11:57;5.10;99.90
3919;DHT22;1974;48.670;8.994;2023-02-22T05:14:24;5.20;99.90
3919;DHT22;1974;48.670;8.994;2023-02-22T05:16:53;5.20;99.90
3919;DHT22;1974;48.670;8.994;2023-02-22T05:19:20;5.20;99.90
3919;DHT22;1974;48.670;8.994;2023-02-22T05:21:47;5.20;99.90
3919;DHT22;1974;48.670;8.994;2023-02-22T05:24:14;5.20;99.90
3919;DHT22;1974;48.670;8.994;2023-02-22T05:26:41;5.20;99.90
3919;DHT22;1974;48.670;8.994;2023-02-22T05:29:08;5.20;99.90
3919;DHT22;1974;48.670;8.994;2023-02-22T05:31:35;5.10;99.90
3919;DHT22;1974;48.670;8.994;2023-02-22T05:34:03;5.10;99.90
3919;DHT22;1974;48.670;8.994;2023-02-22T05:36:30;5.10;99.90
3919;DHT22;1974;48.670;8.994;2023-02-22T05:38:56;5.20;99.90
3919;DHT22;1974;48.670;8.994;2023-02-22T05:41:23;5.20;99.90
3919;DHT22;1974;48.670;8.994;2023-02-22T05:43:50;5.30;99.90
3919;DHT22;1974;48.670;8.994;2023-02-22T05:46:17;5.30;99.90
3919;DHT22;1974;48.670;8.994;2023-02-22T05:48:44;5.40;99.90
3919;DHT22;1974;48.670;8.994;2023-02-22T05:51:12;5.40;99.90
3919;DHT22;1974;48.670;8.994;2023-02-22T05:53:38;5.40;99.90
3919;DHT22;1974;48.670;8.994;2023-02-22T05:56:07;5.50;99.90
3919;DHT22;1974;48.670;8.994;2023-02-22T05:58:33;5.50;99.90
3919;DHT22;1974;48.670;8.994;2023-02-22T06:01:00;5.50;99.90
3919;DHT22;1974;48.670;8.994;2023-02-22T06:03:27;5.50;99.90
3919;DHT22;1974;48.670;8.994;2023-02-22T06:05:53;5.50;99.90
3919;DHT22;1974;48.670;8.994;2023-02-22T06:08:22;5.50;99.90
3919;DHT22;1974;48.670;8.994;2023-02-22T06:10:48;5.50;99.90
3919;DHT22;1974;48.670;8.994;2023-02-22T06:13:15;5.50;99.90
3919;DHT22;1974;48.670;8.994;2023-02-22T06:15:42;5.50;99.90
3919;DHT22;1974;48.670;8.994;2023-02-22T06:18:08;5.50;99.90
3919;DHT22;1974;48.670;8.994;2023-02-22T06:20:35;5.50;99.90
3919;DHT22;1974;48.670;8.994;2023-02-22T06:23:02;5.60;99.90
3919;DHT22;1974;48.670;8.994;2023-02-22T06:25:30;5.60;99.90
3919;DHT22;1974;48.670;8.994;2023-02-22T06:27:57;5.60;99.90
3919;DHT22;1974;48.670;8.994;2023-02-22T06:30:25;5.70;99.90
3919;DHT22;1974;48.670;8.994;2023-02-22T06:32:52;5.70;99.90
3919;DHT22;1974;48.670;8.994;2023-02-22T06:35:19;5.80;99.90
3919;DHT22;1974;48.670;8.994;2023-02-22T06:37:46;5.80;99.90
3919;DHT22;1974;48.670;8.994;2023-02-22T06:40:14;5.80;99.90
3919;DHT22;1974;48.670;8.994;2023-02-22T06:42:42;5.90;99.90
3919;DHT22;1974;48.670;8.994;2023-02-22T06:45:09;5.90;99.90
3919;DHT22;1974;48.670;8.994;2023-02-22T06:47:39;5.90;99.90
3919;DHT22;1974;48.670;8.994;2023-02-22T06:50:09;5.90;99.90
3919;DHT22;1974;48.670;8.994;2023-02-22T06:52:41;5.90;99.90
3919;DHT22;1974;48.670;8.994;2023-02-22T06:55:07;5.90;99.90
3919;DHT22;1974;48.670;8.994;2023-02-22T06:57:34;5.90;99.90
3919;DHT22;1974;48.670;8.994;2023-02-22T07:00:03;5.90;99.90
3919;DHT22;1974;48.670;8.994;2023-02-22T07:02:29;5.90;99.90
3919;DHT22;1974;48.670;8.994;2023-02-22T07:04:56;5.90;99.90
3919;DHT22;1974;48.670;8.994;2023-02-22T07:07:23;5.90;99.90
3919;DHT22;1974;48.670;8.994;2023-02-22T07:09:50;5.90;99.90
3919;DHT22;1974;48.670;8.994;2023-02-22T07:12:16;6.00;99.90
3919;DHT22;1974;48.670;8.994;2023-02-22T07:14:43;6.10;99.90
3919;DHT22;1974;48.670;8.994;2023-02-22T07:17:11;6.10;99.90
3919;DHT22;1974;48.670;8.994;2023-02-22T07:19:38;6.20;99.90
3919;DHT22;1974;48.670;8.994;2023-02-22T07:22:04;6.20;99.90
3919;DHT22;1974;48.670;8.994;2023-02-22T07:24:31;6.30;99.90
3919;DHT22;1974;48.670;8.994;2023-02-22T07:27:00;6.40;99.90
3919;DHT22;1974;48.670;8.994;2023-02-22T07:29:27;6.40;99.90
3919;DHT22;1974;48.670;8.994;2023-02-22T07:31:53;6.50;99.90
3919;DHT22;1974;48.670;8.994;2023-02-22T07:34:23;6.60;99.90
3919;DHT22;1974;48.670;8.994;2023-02-22T07:36:50;6.80;99.90
3919;DHT22;1974;48.670;8.994;2023-02-22T07:39:16;6.90;99.90
3919;DHT22;1974;48.670;8.994;2023-02-22T07:41:43;7.00;99.90
3919;DHT22;1974;48.670;8.994;2023-02-22T07:44:10;7.00;99.90
3919;DHT22;1974;48.670;8.994;2023-02-22T07:46:37;7.00;99.90
3919;DHT22;1974;48.670;8.994;2023-02-22T07:49:04;7.10;99.90
3919;DHT22;1974;48.670;8.994;2023-02-22T07:51:32;7.10;99.90
3919;DHT22;1974;48.670;8.994;2023-02-22T07:53:58;7.20;99.90
3919;DHT22;1974;48.670;8.994;2023-02-22T07:56:25;7.30;99.90
3919;DHT22;1974;48.670;8.994;2023-02-22T07:58:52;7.30;99.90
3919;DHT22;1974;48.670;8.994;2023-02-22T08:01:18;7.40;99.90
3919;DHT22;1974;48.670;8.994;2023-02-22T08:03:45;7.40;99.90
3919;DHT22;1974;48.670;8.994;2023-02-22T08:06:12;7.50;99.90
3919;DHT22;1974;48.670;8.994;2023-02-22T08:08:40;7.60;99.90
3919;DHT22;1974;48.670;8.994;2023-02-22T08:11:07;7.60;99.90
3919;DHT22;1974;48.670;8.994;2023-02-22T08:13:34;7.70;99.90
3919;DHT22;1974;48.670;8.994;2023-02-22T08:16:02;7.60;99.90
3919;DHT22;1974;48.670;8.994;2023-02-22T08:18:29;7.70;99.90
3919;DHT22;1974;48.670;8.994;2023-02-22T08:20:55;7.70;99.90
3919;DHT22;1974;48.670;8.994;2023-02-22T08:23:23;7.70;99.90
3919;DHT22;1974;48.670;8.994;2023-02-22T08:25:53;7.70;99.90
3919;DHT22;1974;48.670;8.994;2023-02-22T08:28:21;7.70;99.90
3919;DHT22;1974;48.670;8.994;2023-02-22T08:30:49;7.70;99.90
3919;DHT22;1974;48.670;8.994;2023-02-22T08:33:17;7.80;99.90
3919;DHT22;1974;48.670;8.994;2023-02-22T08:35:45;7.80;99.90
3919;DHT22;1974;48.670;8.994;2023-02-22T08:38:20;7.70;99.90
3919;DHT22;1974;48.670;8.994;2023-02-22T08:40:48;7.80;99.90
3919;DHT22;1974;48.670;8.994;2023-02-22T08:43:17;7.90;99.90
3919;DHT22;1974;48.670;8.994;2023-02-22T08:45:44;8.00;99.90
3919;DHT22;1974;48.670;8.994;2023-02-22T08:48:11;8.10;99.90
3919;DHT22;1974;48.670;8.994;2023-02-22T08:50:39;8.40;99.90
3919;DHT22;1974;48.670;8.994;2023-02-22T08:53:08;8.60;99.90
3919;DHT22;1974;48.670;8.994;2023-02-22T08:55:36;9.00;99.90
3919;DHT22;1974;48.670;8.994;2023-02-22T08:58:04;9.40;99.90
3919;DHT22;1974;48.670;8.994;2023-02-22T09:00:35;9.80;99.90
3919;DHT22;1974;48.670;8.994;2023-02-22T09:03:04;10.20;99.90
3919;DHT22;1974;48.670;8.994;2023-02-22T09:05:31;10.50;99.90
3919;DHT22;1974;48.670;8.994;2023-02-22T09:07:58;10.80;99.90
3919;DHT22;1974;48.670;8.994;2023-02-22T09:10:27;11.10;99.90
3919;DHT22;1974;48.670;8.994;2023-02-22T09:12:54;11.50;99.90
3919;DHT22;1974;48.670;8.994;2023-02-22T09:15:22;12.10;99.90
3919;DHT22;1974;48.670;8.994;2023-02-22T09:17:51;12.80;99.90
3919;DHT22;1974;48.670;8.994;2023-02-22T09:20:19;13.70;99.90
3919;DHT22;1974;48.670;8.994;2023-02-22T09:22:47;14.50;99.90
3919;DHT22;1974;48.670;8.994;2023-02-22T09:25:15;15.10;99.90
3919;DHT22;1974;48.670;8.994;2023-02-22T09:27:42;15.70;99.90
3919;DHT22;1974;48.670;8.994;2023-02-22T09:30:15;16.40;99.90
3919;DHT22;1974;48.670;8.994;2023-02-22T09:32:42;17.50;99.90
3919;DHT22;1974;48.670;8.994;2023-02-22T09:35:10;18.80;97.30
3919;DHT22;1974;48.670;8.994;2023-02-22T09:37:37;19.90;93.80
3919;DHT22;1974;48.670;8.994;2023-02-22T09:40:05;20.80;90.90
3919;DHT22;1974;48.670;8.994;2023-02-22T09:42:38;21.30;84.50
3919;DHT22;1974;48.670;8.994;2023-02-22T09:45:14;21.80;79.40
3919;DHT22;1974;48.670;8.994;2023-02-22T09:47:48;22.00;76.60
3919;DHT22;1974;48.670;8.994;2023-02-22T09:50:20;22.30;75.10
3919;DHT22;1974;48.670;8.994;2023-02-22T09:52:53;22.50;71.80
3919;DHT22;1974;48.670;8.994;2023-02-22T09:55:29;22.50;69.10
3919;DHT22;1974;48.670;8.994;2023-02-22T09:58:02;22.70;69.70
3919;DHT22;1974;48.670;8.994;2023-02-22T10:00:31;22.80;67.20
3919;DHT22;1974;48.670;8.994;2023-02-22T10:03:10;23.10;67.00
3919;DHT22;1974;48.670;8.994;2023-02-22T10:05:44;23.50;65.50
3919;DHT22;1974;48.670;8.994;2023-02-22T10:08:16;23.60;64.00
3919;DHT22;1974;48.670;8.994;2023-02-22T10:10:45;23.50;63.80
3919;DHT22;1974;48.670;8.994;2023-02-22T10:13:26;23.30;63.90
3919;DHT22;1974;48.670;8.994;2023-02-22T10:15:59;22.70;64.50
3919;DHT22;1974;48.670;8.994;2023-02-22T10:19:01;22.10;65.00
3919;DHT22;1974;48.670;8.994;2023-02-22T10:21:44;21.50;64.30
3919;DHT22;1974;48.670;8.994;2023-02-22T10:24:21;21.10;63.60
3919;DHT22;1974;48.670;8.994;2023-02-22T10:26:51;20.80;66.40
3919;DHT22;1974;48.670;8.994;2023-02-22T10:29:26;20.90;65.70
3919;DHT22;1974;48.670;8.994;2023-02-22T10:31:57;21.50;64.80
3919;DHT22;1974;48.670;8.994;2023-02-22T10:34:27;22.30;62.50
3919;DHT22;1974;48.670;8.994;2023-02-22T10:37:03;23.30;59.90
3919;DHT22;1974;48.670;8.994;2023-02-22T10:39:34;24.10;58.50
3919;DHT22;1974;48.670;8.994;2023-02-22T10:42:04;24.70;57.20
3919;DHT22;1974;48.670;8.994;2023-02-22T10:44:32;25.20;55.00
3919;DHT22;1974;48.670;8.994;2023-02-22T10:47:01;25.60;53.70
3919;DHT22;1974;48.670;8.994;2023-02-22T10:49:34;25.80;53.50
3919;DHT22;1974;48.670;8.994;2023-02-22T10:52:03;25.30;52.70
3919;DHT22;1974;48.670;8.994;2023-02-22T10:54:39;24.70;53.30
3919;DHT22;1974;48.670;8.994;2023-02-22T10:57:07;24.70;54.10
3919;DHT22;1974;48.670;8.994;2023-02-22T10:59:36;25.00;54.20
3919;DHT22;1974;48.670;8.994;2023-02-22T11:02:08;25.20;52.50
3919;DHT22;1974;48.670;8.994;2023-02-22T11:04:45;25.20;50.80
3919;DHT22;1974;48.670;8.994;2023-02-22T11:07:21;24.70;51.60
3919;DHT22;1974;48.670;8.994;2023-02-22T11:09:51;23.90;52.30
3919;DHT22;1974;48.670;8.994;2023-02-22T11:12:24;22.90;53.30
3919;DHT22;1974;48.670;8.994;2023-02-22T11:14:52;22.10;54.00
3919;DHT22;1974;48.670;8.994;2023-02-22T11:17:29;21.40;56.10
3919;DHT22;1974;48.670;8.994;2023-02-22T11:19:57;20.60;57.50
3919;DHT22;1974;48.670;8.994;2023-02-22T11:22:38;20.10;57.90
3919;DHT22;1974;48.670;8.994;2023-02-22T11:25:06;19.60;59.40
3919;DHT22;1974;48.670;8.994;2023-02-22T11:27:38;19.10;60.50
3919;DHT22;1974;48.670;8.994;2023-02-22T11:30:26;18.80;60.00
3919;DHT22;1974;48.670;8.994;2023-02-22T11:32:55;18.40;59.90
3919;DHT22;1974;48.670;8.994;2023-02-22T11:35:36;18.20;60.00
3919;DHT22;1974;48.670;8.994;2023-02-22T11:38:16;17.90;61.10
3919;DHT22;1974;48.670;8.994;2023-02-22T11:40:43;17.70;62.20
3919;DHT22;1974;48.670;8.994;2023-02-22T11:43:15;17.60;61.40
3919;DHT22;1974;48.670;8.994;2023-02-22T11:46:00;17.50;62.50
3919;DHT22;1974;48.670;8.994;2023-02-22T11:48:29;17.40;64.10
3919;DHT22;1974;48.670;8.994;2023-02-22T11:51:08;17.30;63.00
3919;DHT22;1974;48.670;8.994;2023-02-22T11:56:36;17.50;63.40
3919;DHT22;1974;48.670;8.994;2023-02-22T11:59:14;17.50;62.50
3919;DHT22;1974;48.670;8.994;2023-02-22T12:01:49;17.40;64.50
3919;DHT22;1974;48.670;8.994;2023-02-22T12:07:30;17.30;63.90
3919;DHT22;1974;48.670;8.994;2023-02-22T12:10:07;17.20;63.70
3919;DHT22;1974;48.670;8.994;2023-02-22T12:12:42;16.90;64.80
3919;DHT22;1974;48.670;8.994;2023-02-22T12:15:20;16.90;66.10
3919;DHT22;1974;48.670;8.994;2023-02-22T12:17:52;16.80;66.00
3919;DHT22;1974;48.670;8.994;2023-02-22T12:20:22;16.70;66.50
3919;DHT22;1974;48.670;8.994;2023-02-22T12:22:59;16.70;66.40
3919;DHT22;1974;48.670;8.994;2023-02-22T12:25:32;16.70;67.40
3919;DHT22;1974;48.670;8.994;2023-02-22T12:28:13;16.60;67.00
3919;DHT22;1974;48.670;8.994;2023-02-22T12:30:44;16.70;67.70
3919;DHT22;1974;48.670;8.994;2023-02-22T12:33:15;16.60;67.30
3919;DHT22;1974;48.670;8.994;2023-02-22T12:35:49;16.60;68.00
3919;DHT22;1974;48.670;8.994;2023-02-22T12:38:21;16.50;68.60
3919;DHT22;1974;48.670;8.994;2023-02-22T12:40:55;16.40;68.80
3919;DHT22;1974;48.670;8.994;2023-02-22T12:43:27;16.40;69.00
3919;DHT22;1974;48.670;8.994;2023-02-22T12:46:00;16.30;69.60
3919;DHT22;1974;48.670;8.994;2023-02-22T12:48:41;16.20;69.50
3919;DHT22;1974;48.670;8.994;2023-02-22T12:51:20;16.10;71.10
3919;DHT22;1974;48.670;8.994;2023-02-22T12:53:55;16.10;73.10
3919;DHT22;1974;48.670;8.994;2023-02-22T12:56:31;16.00;73.10
3919;DHT22;1974;48.670;8.994;2023-02-22T12:59:04;15.90;74.00
3919;DHT22;1974;48.670;8.994;2023-02-22T13:01:35;15.70;75.30
3919;DHT22;1974;48.670;8.994;2023-02-22T13:04:03;15.60;76.40
3919;DHT22;1974;48.670;8.994;2023-02-22T13:06:57;15.50;77.30
3919;DHT22;1974;48.670;8.994;2023-02-22T13:12:25;15.40;78.80
3919;DHT22;1974;48.670;8.994;2023-02-22T13:15:02;15.30;79.00
3919;DHT22;1974;48.670;8.994;2023-02-22T13:17:38;15.10;79.90
3919;DHT22;1974;48.670;8.994;2023-02-22T13:20:13;15.10;80.80
3919;DHT22;1974;48.670;8.994;2023-02-22T13:22:47;15.00;81.90
3919;DHT22;1974;48.670;8.994;2023-02-22T13:25:18;14.90;83.70
3919;DHT22;1974;48.670;8.994;2023-02-22T13:27:50;14.80;83.90
3919;DHT22;1974;48.670;8.994;2023-02-22T13:30:22;14.80;84.10
3919;DHT22;1974;48.670;8.994;2023-02-22T13:33:06;14.70;85.00
3919;DHT22;1974;48.670;8.994;2023-02-22T13:35:48;14.60;86.60
3919;DHT22;1974;48.670;8.994;2023-02-22T13:38:51;14.70;86.50
3919;DHT22;1974;48.670;8.994;2023-02-22T13:44:36;14.70;87.60
3919;DHT22;1974;48.670;8.994;2023-02-22T13:50:30;14.70;87.80
3919;DHT22;1974;48.670;8.994;2023-02-22T13:53:03;14.80;87.90
3919;DHT22;1974;48.670;8.994;2023-02-22T13:55:32;14.90;87.40
3919;DHT22;1974;48.670;8.994;2023-02-22T13:58:03;15.00;86.90
3919;DHT22;1974;48.670;8.994;2023-02-22T14:00:44;15.10;87.40
3919;DHT22;1974;48.670;8.994;2023-02-22T14:03:35;15.20;87.30
3919;DHT22;1974;48.670;8.994;2023-02-22T14:06:06;15.30;86.10
3919;DHT22;1974;48.670;8.994;2023-02-22T14:08:41;15.40;85.70
3919;DHT22;1974;48.670;8.994;2023-02-22T14:14:18;15.30;86.40
3919;DHT22;1974;48.670;8.994;2023-02-22T14:17:15;15.30;87.40
3919;DHT22;1974;48.670;8.994;2023-02-22T14:20:04;15.20;88.20
3919;DHT22;1974;48.670;8.994;2023-02-22T14:22:39;15.10;88.40
3919;DHT22;1974;48.670;8.994;2023-02-22T14:25:31;15.00;88.90
3919;DHT22;1974;48.670;8.994;2023-02-22T14:28:00;15.00;88.60
3919;DHT22;1974;48.670;8.994;2023-02-22T14:30:30;14.90;89.40
3919;DHT22;1974;48.670;8.994;2023-02-22T14:32:59;14.90;89.90
3919;DHT22;1974;48.670;8.994;2023-02-22T14:35:31;14.90;90.20
3919;DHT22;1974;48.670;8.994;2023-02-22T14:38:04;14.90;90.10
3919;DHT22;1974;48.670;8.994;2023-02-22T14:40:34;15.00;90.20
3919;DHT22;1974;48.670;8.994;2023-02-22T14:43:05;15.00;90.20
3919;DHT22;1974;48.670;8.994;2023-02-22T14:45:36;15.00;90.50
3919;DHT22;1974;48.670;8.994;2023-02-22T14:48:17;15.00;90.00
3919;DHT22;1974;48.670;8.994;2023-02-22T14:50:48;15.10;88.60
3919;DHT22;1974;48.670;8.994;2023-02-22T14:53:22;15.10;89.00
3919;DHT22;1974;48.670;8.994;2023-02-22T14:55:53;15.00;89.20
3919;DHT22;1974;48.670;8.994;2023-02-22T14:58:24;15.00;90.00
3919;DHT22;1974;48.670;8.994;2023-02-22T15:00:54;15.00;89.60
3919;DHT22;1974;48.670;8.994;2023-02-22T15:03:27;15.00;89.90
3919;DHT22;1974;48.670;8.994;2023-02-22T15:06:04;14.90;90.10
3919;DHT22;1974;48.670;8.994;2023-02-22T15:08:30;14.90;90.10
3919;DHT22;1974;48.670;8.994;2023-02-22T15:10:58;14.80;90.40
3919;DHT22;1974;48.670;8.994;2023-02-22T15:13:28;14.80;90.00
3919;DHT22;1974;48.670;8.994;2023-02-22T15:15:59;14.70;90.30
3919;DHT22;1974;48.670;8.994;2023-02-22T15:18:29;14.60;90.10
3919;DHT22;1974;48.670;8.994;2023-02-22T15:21:02;14.60;90.30
3919;DHT22;1974;48.670;8.994;2023-02-22T15:23:39;14.60;90.50
3919;DHT22;1974;48.670;8.994;2023-02-22T15:26:07;14.50;91.00
3919;DHT22;1974;48.670;8.994;2023-02-22T15:28:33;14.40;90.40
3919;DHT22;1974;48.670;8.994;2023-02-22T15:31:30;14.30;90.60
3919;DHT22;1974;48.670;8.994;2023-02-22T15:34:09;14.30;90.60
3919;DHT22;1974;48.670;8.994;2023-02-22T15:36:42;14.30;90.90
3919;DHT22;1974;48.670;8.994;2023-02-22T15:39:17;14.20;90.60
3919;DHT22;1974;48.670;8.994;2023-02-22T15:41:45;14.10;90.70
3919;DHT22;1974;48.670;8.994;2023-02-22T15:44:11;14.10;91.30
3919;DHT22;1974;48.670;8.994;2023-02-22T15:46:39;14.00;91.60
3919;DHT22;1974;48.670;8.994;2023-02-22T15:49:19;13.90;91.90
3919;DHT22;1974;48.670;8.994;2023-02-22T15:52:03;13.90;91.80
3919;DHT22;1974;48.670;8.994;2023-02-22T15:54:39;13.80;91.50
3919;DHT22;1974;48.670;8.994;2023-02-22T15:57:07;13.70;91.90
3919;DHT22;1974;48.670;8.994;2023-02-22T15:59:42;13.60;92.40
3919;DHT22;1974;48.670;8.994;2023-02-22T16:02:30;13.70;92.40
3919;DHT22;1974;48.670;8.994;2023-02-22T16:05:02;13.60;93.00
3919;DHT22;1974;48.670;8.994;2023-02-22T16:07:29;13.50;92.80
3919;DHT22;1974;48.670;8.994;2023-02-22T16:09:57;13.50;92.60
3919;DHT22;1974;48.670;8.994;2023-02-22T16:12:33;13.40;92.70
3919;DHT22;1974;48.670;8.994;2023-02-22T16:15:00;13.40;93.40
3919;DHT22;1974;48.670;8.994;2023-02-22T16:17:33;13.30;93.50
3919;DHT22;1974;48.670;8.994;2023-02-22T16:20:29;13.20;93.50
3919;DHT22;1974;48.670;8.994;2023-02-22T16:22:57;13.10;93.70
3919;DHT22;1974;48.670;8.994;2023-02-22T16:25:26;13.10;93.50
3919;DHT22;1974;48.670;8.994;2023-02-22T16:27:58;13.00;94.20
3919;DHT22;1974;48.670;8.994;2023-02-22T16:30:32;12.90;94.60
3919;DHT22;1974;48.670;8.994;2023-02-22T16:33:02;12.90;95.20
3919;DHT22;1974;48.670;8.994;2023-02-22T16:35:31;12.80;94.90
3919;DHT22;1974;48.670;8.994;2023-02-22T16:38:01;12.70;95.20
3919;DHT22;1974;48.670;8.994;2023-02-22T16:40:31;12.70;95.90
3919;DHT22;1974;48.670;8.994;2023-02-22T16:43:01;12.60;96.30
3919;DHT22;1974;48.670;8.994;2023-02-22T16:45:28;12.60;96.60
3919;DHT22;1974;48.670;8.994;2023-02-22T16:47:55;12.50;97.30
3919;DHT22;1974;48.670;8.994;2023-02-22T16:50:22;12.50;97.40
3919;DHT22;1974;48.670;8.994;2023-02-22T16:52:51;12.40;97.90
3919;DHT22;1974;48.670;8.994;2023-02-22T16:55:20;12.40;98.10
3919;DHT22;1974;48.670;8.994;2023-02-22T16:57:49;12.30;98.20
3919;DHT22;1974;48.670;8.994;2023-02-22T17:00:21;12.20;98.40